sensor_id;sensor_type;location;lat;lon;timestamp;P1;durP1;ratioP1;P2;durP2;ratioP2
47021;SDS011;32779;52.264;6.154;2023-12-20T00:01:31;17.92;;;4.93;;
47021;SDS011;32779;52.264;6.154;2023-12-20T00:03:57;21.92;;;4.82;;
47021;SDS011;32779;52.264;6.154;2023-12-20T00:06:22;20.10;;;5.30;;
47021;SDS011;32779;52.264;6.154;2023-12-20T00:08:49;16.15;;;4.05;;
47021;SDS011;32779;52.264;6.154;2023-12-20T00:11:14;14.43;;;4.18;;
47021;SDS011;32779;52.264;6.154;2023-12-20T00:13:40;24.55;;;5.18;;
47021;SDS011;32779;52.264;6.154;2023-12-20T00:16:05;16.73;;;4.03;;
47021;SDS011;32779;52.264;6.154;2023-12-20T00:18:31;16.48;;;4.57;;
47021;SDS011;32779;52.264;6.154;2023-12-20T00:20:57;23.08;;;5.25;;
47021;SDS011;32779;52.264;6.154;2023-12-20T00:23:22;18.80;;;3.70;;
47021;SDS011;32779;52.264;6.154;2023-12-20T00:25:48;13.02;;;3.30;;
47021;SDS011;32779;52.264;6.154;2023-12-20T00:28:14;17.20;;;3.45;;
47021;SDS011;32779;52.264;6.154;2023-12-20T00:30:40;14.15;;;3.13;;
47021;SDS011;32779;52.264;6.154;2023-12-20T00:33:05;17.45;;;3.50;;
47021;SDS011;32779;52.264;6.154;2023-12-20T00:35:31;25.38;;;3.13;;
47021;SDS011;32779;52.264;6.154;2023-12-20T00:37:57;17.75;;;3.38;;
47021;SDS011;32779;52.264;6.154;2023-12-20T00:40:23;29.33;;;5.00;;
47021;SDS011;32779;52.264;6.154;2023-12-20T00:42:49;15.25;;;2.38;;
47021;SDS011;32779;52.264;6.154;2023-12-20T00:45:15;19.52;;;3.38;;
47021;SDS011;32779;52.264;6.154;2023-12-20T00:47:40;11.65;;;3.22;;
47021;SDS011;32779;52.264;6.154;2023-12-20T00:50:06;15.85;;;2.83;;
47021;SDS011;32779;52.264;6.154;2023-12-20T00:52:32;19.52;;;2.92;;
47021;SDS011;32779;52.264;6.154;2023-12-20T00:54:58;23.33;;;2.88;;
47021;SDS011;32779;52.264;6.154;2023-12-20T00:57:23;20.38;;;2.78;;
47021;SDS011;32779;52.264;6.154;2023-12-20T00:59:50;16.10;;;3.13;;
47021;SDS011;32779;52.264;6.154;2023-12-20T01:02:15;20.73;;;3.00;;
47021;SDS011;32779;52.264;6.154;2023-12-20T01:04:41;19.42;;;2.88;;
47021;SDS011;32779;52.264;6.154;2023-12-20T01:07:07;13.43;;;2.35;;
47021;SDS011;32779;52.264;6.154;2023-12-20T01:09:33;15.23;;;3.40;;
47021;SDS011;32779;52.264;6.154;2023-12-20T01:11:58;21.17;;;2.90;;
47021;SDS011;32779;52.264;6.154;2023-12-20T01:14:24;17.95;;;2.80;;
47021;SDS011;32779;52.264;6.154;2023-12-20T01:16:49;14.27;;;2.70;;
47021;SDS011;32779;52.264;6.154;2023-12-20T01:19:15;18.52;;;2.88;;
47021;SDS011;32779;52.264;6.154;2023-12-20T01:21:41;18.42;;;2.85;;
47021;SDS011;32779;52.264;6.154;2023-12-20T01:24:06;21.20;;;3.05;;
47021;SDS011;32779;52.264;6.154;2023-12-20T01:26:32;19.30;;;2.42;;
47021;SDS011;32779;52.264;6.154;2023-12-20T01:28:57;25.52;;;2.92;;
47021;SDS011;32779;52.264;6.154;2023-12-20T01:31:23;18.58;;;2.10;;
47021;SDS011;32779;52.264;6.154;2023-12-20T01:33:49;20.25;;;2.95;;
47021;SDS011;32779;52.264;6.154;2023-12-20T01:36:14;17.17;;;2.67;;
47021;SDS011;32779;52.264;6.154;2023-12-20T01:38:40;15.77;;;2.28;;
47021;SDS011;32779;52.264;6.154;2023-12-20T01:41:05;17.80;;;3.45;;
47021;SDS011;32779;52.264;6.154;2023-12-20T01:43:31;13.05;;;2.45;;
47021;SDS011;32779;52.264;6.154;2023-12-20T01:45:57;12.32;;;2.55;;
47021;SDS011;32779;52.264;6.154;2023-12-20T01:48:23;24.45;;;4.00;;
47021;SDS011;32779;52.264;6.154;2023-12-20T01:50:50;14.00;;;2.42;;
47021;SDS011;32779;52.264;6.154;2023-12-20T01:53:17;22.50;;;2.67;;
47021;SDS011;32779;52.264;6.154;2023-12-20T01:55:45;17.73;;;2.88;;
47021;SDS011;32779;52.264;6.154;2023-12-20T01:58:12;13.27;;;2.75;;
47021;SDS011;32779;52.264;6.154;2023-12-20T02:00:39;23.98;;;3.15;;
47021;SDS011;32779;52.264;6.154;2023-12-20T02:03:05;18.55;;;2.72;;
47021;SDS011;32779;52.264;6.154;2023-12-20T02:05:31;20.98;;;3.28;;
47021;SDS011;32779;52.264;6.154;2023-12-20T02:07:59;26.83;;;3.10;;
47021;SDS011;32779;52.264;6.154;2023-12-20T02:10:25;15.75;;;2.78;;
47021;SDS011;32779;52.264;6.154;2023-12-20T02:12:51;26.00;;;3.83;;
47021;SDS011;32779;52.264;6.154;2023-12-20T02:15:17;18.13;;;3.13;;
47021;SDS011;32779;52.264;6.154;2023-12-20T02:17:43;24.85;;;3.30;;
47021;SDS011;32779;52.264;6.154;2023-12-20T02:20:10;21.65;;;3.20;;
47021;SDS011;32779;52.264;6.154;2023-12-20T02:22:35;16.67;;;2.50;;
47021;SDS011;32779;52.264;6.154;2023-12-20T02:25:01;22.27;;;3.88;;
47021;SDS011;32779;52.264;6.154;2023-12-20T02:27:27;24.95;;;5.30;;
47021;SDS011;32779;52.264;6.154;2023-12-20T02:29:54;25.15;;;3.88;;
47021;SDS011;32779;52.264;6.154;2023-12-20T02:32:20;20.15;;;3.40;;
47021;SDS011;32779;52.264;6.154;2023-12-20T02:34:47;23.88;;;3.72;;
47021;SDS011;32779;52.264;6.154;2023-12-20T02:37:13;22.77;;;3.72;;
47021;SDS011;32779;52.264;6.154;2023-12-20T02:39:39;21.88;;;3.60;;
47021;SDS011;32779;52.264;6.154;2023-12-20T02:42:05;21.40;;;3.35;;
47021;SDS011;32779;52.264;6.154;2023-12-20T02:44:30;18.70;;;3.60;;
47021;SDS011;32779;52.264;6.154;2023-12-20T02:46:56;20.10;;;2.92;;
47021;SDS011;32779;52.264;6.154;2023-12-20T02:49:21;24.55;;;3.13;;
47021;SDS011;32779;52.264;6.154;2023-12-20T02:51:47;24.95;;;4.25;;
47021;SDS011;32779;52.264;6.154;2023-12-20T02:54:13;24.58;;;3.47;;
47021;SDS011;32779;52.264;6.154;2023-12-20T02:56:38;26.27;;;3.40;;
47021;SDS011;32779;52.264;6.154;2023-12-20T02:59:04;14.18;;;3.25;;
47021;SDS011;32779;52.264;6.154;2023-12-20T03:01:31;20.02;;;3.38;;
47021;SDS011;32779;52.264;6.154;2023-12-20T03:03:57;27.15;;;3.33;;
47021;SDS011;32779;52.264;6.154;2023-12-20T03:06:22;24.05;;;2.88;;
47021;SDS011;32779;52.264;6.154;2023-12-20T03:08:48;23.88;;;3.80;;
47021;SDS011;32779;52.264;6.154;2023-12-20T03:11:14;25.80;;;3.00;;
47021;SDS011;32779;52.264;6.154;2023-12-20T03:13:40;27.55;;;3.47;;
47021;SDS011;32779;52.264;6.154;2023-12-20T03:16:11;23.23;;;3.30;;
47021;SDS011;32779;52.264;6.154;2023-12-20T03:18:38;28.60;;;4.13;;
47021;SDS011;32779;52.264;6.154;2023-12-20T03:21:04;25.08;;;3.60;;
47021;SDS011;32779;52.264;6.154;2023-12-20T03:23:30;27.83;;;4.72;;
47021;SDS011;32779;52.264;6.154;2023-12-20T03:25:57;25.15;;;3.92;;
47021;SDS011;32779;52.264;6.154;2023-12-20T03:28:24;21.80;;;3.42;;
47021;SDS011;32779;52.264;6.154;2023-12-20T03:30:50;34.22;;;3.42;;
47021;SDS011;32779;52.264;6.154;2023-12-20T03:33:15;28.95;;;4.38;;
47021;SDS011;32779;52.264;6.154;2023-12-20T03:35:41;20.90;;;3.72;;
47021;SDS011;32779;52.264;6.154;2023-12-20T03:38:06;29.65;;;4.07;;
47021;SDS011;32779;52.264;6.154;2023-12-20T03:40:32;19.98;;;3.00;;
47021;SDS011;32779;52.264;6.154;2023-12-20T03:42:58;21.10;;;3.63;;
47021;SDS011;32779;52.264;6.154;2023-12-20T03:45:23;25.13;;;3.33;;
47021;SDS011;32779;52.264;6.154;2023-12-20T03:47:49;30.75;;;4.70;;
47021;SDS011;32779;52.264;6.154;2023-12-20T03:50:20;26.15;;;3.97;;
47021;SDS011;32779;52.264;6.154;2023-12-20T03:52:47;25.52;;;4.13;;
47021;SDS011;32779;52.264;6.154;2023-12-20T03:55:12;21.92;;;3.25;;
47021;SDS011;32779;52.264;6.154;2023-12-20T03:57:38;31.50;;;4.32;;
47021;SDS011;32779;52.264;6.154;2023-12-20T04:00:04;31.42;;;3.75;;
47021;SDS011;32779;52.264;6.154;2023-12-20T04:02:30;29.15;;;4.72;;
47021;SDS011;32779;52.264;6.154;2023-12-20T04:04:56;24.38;;;3.75;;
47021;SDS011;32779;52.264;6.154;2023-12-20T04:07:21;27.85;;;4.53;;
47021;SDS011;32779;52.264;6.154;2023-12-20T04:09:47;27.73;;;3.88;;
47021;SDS011;32779;52.264;6.154;2023-12-20T04:12:13;21.52;;;4.43;;
47021;SDS011;32779;52.264;6.154;2023-12-20T04:14:39;33.95;;;3.95;;
47021;SDS011;32779;52.264;6.154;2023-12-20T04:17:04;19.08;;;3.15;;
47021;SDS011;32779;52.264;6.154;2023-12-20T04:19:30;24.02;;;3.80;;
47021;SDS011;32779;52.264;6.154;2023-12-20T04:21:55;23.55;;;3.90;;
47021;SDS011;32779;52.264;6.154;2023-12-20T04:24:21;23.70;;;4.18;;
47021;SDS011;32779;52.264;6.154;2023-12-20T04:29:13;26.23;;;4.82;;
47021;SDS011;32779;52.264;6.154;2023-12-20T04:31:38;27.83;;;3.83;;
47021;SDS011;32779;52.264;6.154;2023-12-20T04:34:04;25.85;;;5.07;;
47021;SDS011;32779;52.264;6.154;2023-12-20T04:36:30;27.42;;;4.03;;
47021;SDS011;32779;52.264;6.154;2023-12-20T04:38:59;31.63;;;4.50;;
47021;SDS011;32779;52.264;6.154;2023-12-20T04:41:25;31.33;;;3.85;;
47021;SDS011;32779;52.264;6.154;2023-12-20T04:43:52;30.15;;;3.95;;
47021;SDS011;32779;52.264;6.154;2023-12-20T04:46:18;28.10;;;4.45;;
47021;SDS011;32779;52.264;6.154;2023-12-20T04:48:44;29.63;;;3.63;;
47021;SDS011;32779;52.264;6.154;2023-12-20T04:51:09;36.92;;;4.10;;
47021;SDS011;32779;52.264;6.154;2023-12-20T04:53:35;24.48;;;3.65;;
47021;SDS011;32779;52.264;6.154;2023-12-20T04:56:00;24.50;;;3.65;;
47021;SDS011;32779;52.264;6.154;2023-12-20T04:58:26;27.38;;;3.63;;
47021;SDS011;32779;52.264;6.154;2023-12-20T05:00:52;23.80;;;4.80;;
47021;SDS011;32779;52.264;6.154;2023-12-20T05:03:17;35.10;;;4.60;;
47021;SDS011;32779;52.264;6.154;2023-12-20T05:05:43;26.48;;;4.13;;
47021;SDS011;32779;52.264;6.154;2023-12-20T05:08:08;20.88;;;4.05;;
47021;SDS011;32779;52.264;6.154;2023-12-20T05:10:34;22.02;;;3.55;;
47021;SDS011;32779;52.264;6.154;2023-12-20T05:13:01;27.95;;;5.18;;
47021;SDS011;32779;52.264;6.154;2023-12-20T05:15:27;30.63;;;4.47;;
47021;SDS011;32779;52.264;6.154;2023-12-20T05:17:52;24.77;;;4.65;;
47021;SDS011;32779;52.264;6.154;2023-12-20T05:20:18;22.98;;;3.72;;
47021;SDS011;32779;52.264;6.154;2023-12-20T05:22:43;31.67;;;5.28;;
47021;SDS011;32779;52.264;6.154;2023-12-20T05:25:10;35.45;;;5.07;;
47021;SDS011;32779;52.264;6.154;2023-12-20T05:27:35;37.58;;;4.78;;
47021;SDS011;32779;52.264;6.154;2023-12-20T05:30:01;23.30;;;3.92;;
47021;SDS011;32779;52.264;6.154;2023-12-20T05:32:27;26.33;;;3.40;;
47021;SDS011;32779;52.264;6.154;2023-12-20T05:34:52;21.63;;;4.10;;
47021;SDS011;32779;52.264;6.154;2023-12-20T05:37:18;22.08;;;3.75;;
47021;SDS011;32779;52.264;6.154;2023-12-20T05:39:43;33.08;;;4.80;;
47021;SDS011;32779;52.264;6.154;2023-12-20T05:42:09;22.48;;;3.75;;
47021;SDS011;32779;52.264;6.154;2023-12-20T05:44:35;24.48;;;4.50;;
47021;SDS011;32779;52.264;6.154;2023-12-20T05:47:01;22.80;;;4.03;;
47021;SDS011;32779;52.264;6.154;2023-12-20T05:49:27;34.28;;;4.28;;
47021;SDS011;32779;52.264;6.154;2023-12-20T05:51:52;36.35;;;4.45;;
47021;SDS011;32779;52.264;6.154;2023-12-20T05:54:19;20.77;;;4.28;;
47021;SDS011;32779;52.264;6.154;2023-12-20T05:56:44;32.15;;;4.55;;
47021;SDS011;32779;52.264;6.154;2023-12-20T05:59:10;29.17;;;4.20;;
47021;SDS011;32779;52.264;6.154;2023-12-20T06:01:35;30.25;;;4.45;;
47021;SDS011;32779;52.264;6.154;2023-12-20T06:04:01;28.08;;;3.78;;
47021;SDS011;32779;52.264;6.154;2023-12-20T06:06:28;18.80;;;4.03;;
47021;SDS011;32779;52.264;6.154;2023-12-20T06:08:53;24.33;;;3.85;;
47021;SDS011;32779;52.264;6.154;2023-12-20T06:11:19;21.08;;;4.00;;
47021;SDS011;32779;52.264;6.154;2023-12-20T06:13:45;31.50;;;4.90;;
47021;SDS011;32779;52.264;6.154;2023-12-20T06:16:11;25.35;;;3.83;;
47021;SDS011;32779;52.264;6.154;2023-12-20T06:18:36;25.15;;;4.07;;
47021;SDS011;32779;52.264;6.154;2023-12-20T06:21:02;29.60;;;3.50;;
47021;SDS011;32779;52.264;6.154;2023-12-20T06:23:28;23.80;;;3.50;;
47021;SDS011;32779;52.264;6.154;2023-12-20T06:25:53;26.83;;;3.72;;
47021;SDS011;32779;52.264;6.154;2023-12-20T06:28:19;26.90;;;3.80;;
47021;SDS011;32779;52.264;6.154;2023-12-20T06:30:45;28.60;;;3.67;;
47021;SDS011;32779;52.264;6.154;2023-12-20T06:33:14;30.95;;;4.07;;
47021;SDS011;32779;52.264;6.154;2023-12-20T06:35:39;30.33;;;4.00;;
47021;SDS011;32779;52.264;6.154;2023-12-20T06:38:05;26.33;;;4.18;;
47021;SDS011;32779;52.264;6.154;2023-12-20T06:40:30;20.80;;;4.45;;
47021;SDS011;32779;52.264;6.154;2023-12-20T06:42:56;27.65;;;3.70;;
47021;SDS011;32779;52.264;6.154;2023-12-20T06:45:22;26.13;;;4.05;;
47021;SDS011;32779;52.264;6.154;2023-12-20T06:47:47;23.85;;;3.75;;
47021;SDS011;32779;52.264;6.154;2023-12-20T06:50:13;35.03;;;4.00;;
47021;SDS011;32779;52.264;6.154;2023-12-20T06:55:04;29.20;;;4.32;;
47021;SDS011;32779;52.264;6.154;2023-12-20T06:57:30;29.77;;;4.55;;
47021;SDS011;32779;52.264;6.154;2023-12-20T06:59:56;28.02;;;3.47;;
47021;SDS011;32779;52.264;6.154;2023-12-20T07:02:22;30.38;;;4.15;;
47021;SDS011;32779;52.264;6.154;2023-12-20T07:04:48;24.10;;;3.80;;
47021;SDS011;32779;52.264;6.154;2023-12-20T07:07:14;26.95;;;3.60;;
47021;SDS011;32779;52.264;6.154;2023-12-20T07:09:39;27.45;;;4.22;;
47021;SDS011;32779;52.264;6.154;2023-12-20T07:12:07;16.85;;;3.15;;
47021;SDS011;32779;52.264;6.154;2023-12-20T07:14:33;30.80;;;4.15;;
47021;SDS011;32779;52.264;6.154;2023-12-20T07:16:59;23.08;;;3.60;;
47021;SDS011;32779;52.264;6.154;2023-12-20T07:19:24;24.90;;;3.97;;
47021;SDS011;32779;52.264;6.154;2023-12-20T07:21:50;26.52;;;4.25;;
47021;SDS011;32779;52.264;6.154;2023-12-20T07:24:16;21.95;;;3.70;;
47021;SDS011;32779;52.264;6.154;2023-12-20T07:26:41;25.85;;;3.67;;
47021;SDS011;32779;52.264;6.154;2023-12-20T07:29:08;18.80;;;3.67;;
47021;SDS011;32779;52.264;6.154;2023-12-20T07:31:33;21.10;;;3.53;;
47021;SDS011;32779;52.264;6.154;2023-12-20T07:33:59;25.98;;;3.45;;
47021;SDS011;32779;52.264;6.154;2023-12-20T07:36:25;20.73;;;2.95;;
47021;SDS011;32779;52.264;6.154;2023-12-20T07:38:51;17.38;;;3.83;;
47021;SDS011;32779;52.264;6.154;2023-12-20T07:41:16;23.95;;;3.63;;
47021;SDS011;32779;52.264;6.154;2023-12-20T07:43:42;23.65;;;3.85;;
47021;SDS011;32779;52.264;6.154;2023-12-20T07:46:08;22.17;;;3.22;;
47021;SDS011;32779;52.264;6.154;2023-12-20T07:48:37;21.50;;;2.97;;
47021;SDS011;32779;52.264;6.154;2023-12-20T07:51:03;26.38;;;3.22;;
47021;SDS011;32779;52.264;6.154;2023-12-20T07:53:30;25.42;;;3.67;;
47021;SDS011;32779;52.264;6.154;2023-12-20T07:55:56;20.95;;;3.75;;
47021;SDS011;32779;52.264;6.154;2023-12-20T07:58:21;33.25;;;4.43;;
47021;SDS011;32779;52.264;6.154;2023-12-20T08:00:47;23.05;;;3.28;;
47021;SDS011;32779;52.264;6.154;2023-12-20T08:03:13;22.33;;;3.67;;
47021;SDS011;32779;52.264;6.154;2023-12-20T08:05:38;29.73;;;4.32;;
47021;SDS011;32779;52.264;6.154;2023-12-20T08:08:07;24.50;;;3.55;;
47021;SDS011;32779;52.264;6.154;2023-12-20T08:10:33;26.92;;;3.95;;
47021;SDS011;32779;52.264;6.154;2023-12-20T08:12:58;29.02;;;4.03;;
47021;SDS011;32779;52.264;6.154;2023-12-20T08:15:24;27.95;;;4.30;;
47021;SDS011;32779;52.264;6.154;2023-12-20T08:17:50;24.08;;;3.90;;
47021;SDS011;32779;52.264;6.154;2023-12-20T08:20:16;21.95;;;3.03;;
47021;SDS011;32779;52.264;6.154;2023-12-20T08:22:42;23.15;;;4.07;;
47021;SDS011;32779;52.264;6.154;2023-12-20T08:25:08;24.58;;;4.20;;
47021;SDS011;32779;52.264;6.154;2023-12-20T08:27:34;26.70;;;4.72;;
47021;SDS011;32779;52.264;6.154;2023-12-20T08:30:04;28.02;;;3.95;;
47021;SDS011;32779;52.264;6.154;2023-12-20T08:32:31;23.05;;;3.67;;
47021;SDS011;32779;52.264;6.154;2023-12-20T08:34:57;24.13;;;3.50;;
47021;SDS011;32779;52.264;6.154;2023-12-20T08:37:22;32.40;;;4.32;;
47021;SDS011;32779;52.264;6.154;2023-12-20T08:39:48;23.67;;;4.35;;
47021;SDS011;32779;52.264;6.154;2023-12-20T08:42:13;33.95;;;4.28;;
47021;SDS011;32779;52.264;6.154;2023-12-20T08:44:39;30.00;;;3.72;;
47021;SDS011;32779;52.264;6.154;2023-12-20T08:47:05;21.92;;;4.57;;
47021;SDS011;32779;52.264;6.154;2023-12-20T08:49:30;32.10;;;5.03;;
47021;SDS011;32779;52.264;6.154;2023-12-20T08:51:56;27.80;;;3.85;;
47021;SDS011;32779;52.264;6.154;2023-12-20T08:54:22;22.02;;;3.47;;
47021;SDS011;32779;52.264;6.154;2023-12-20T08:56:47;25.55;;;4.25;;
47021;SDS011;32779;52.264;6.154;2023-12-20T08:59:13;27.92;;;4.07;;
47021;SDS011;32779;52.264;6.154;2023-12-20T09:01:39;25.35;;;3.90;;
47021;SDS011;32779;52.264;6.154;2023-12-20T09:04:04;28.05;;;4.85;;
47021;SDS011;32779;52.264;6.154;2023-12-20T09:06:31;33.35;;;4.43;;
47021;SDS011;32779;52.264;6.154;2023-12-20T09:08:57;21.73;;;3.92;;
47021;SDS011;32779;52.264;6.154;2023-12-20T09:11:22;27.35;;;4.22;;
47021;SDS011;32779;52.264;6.154;2023-12-20T09:13:48;24.40;;;3.95;;
47021;SDS011;32779;52.264;6.154;2023-12-20T09:16:13;24.60;;;4.03;;
47021;SDS011;32779;52.264;6.154;2023-12-20T09:18:40;29.02;;;4.28;;
47021;SDS011;32779;52.264;6.154;2023-12-20T09:21:06;25.23;;;4.63;;
47021;SDS011;32779;52.264;6.154;2023-12-20T09:23:32;32.35;;;4.50;;
47021;SDS011;32779;52.264;6.154;2023-12-20T09:25:57;29.45;;;4.05;;
47021;SDS011;32779;52.264;6.154;2023-12-20T09:28:23;28.63;;;5.75;;
47021;SDS011;32779;52.264;6.154;2023-12-20T09:30:49;27.13;;;4.00;;
47021;SDS011;32779;52.264;6.154;2023-12-20T09:33:14;27.30;;;3.75;;
47021;SDS011;32779;52.264;6.154;2023-12-20T09:35:41;27.88;;;4.20;;
47021;SDS011;32779;52.264;6.154;2023-12-20T09:38:07;26.20;;;4.00;;
47021;SDS011;32779;52.264;6.154;2023-12-20T09:40:33;27.45;;;3.80;;
47021;SDS011;32779;52.264;6.154;2023-12-20T09:43:04;24.70;;;4.43;;
47021;SDS011;32779;52.264;6.154;2023-12-20T09:45:36;22.42;;;3.45;;
47021;SDS011;32779;52.264;6.154;2023-12-20T09:48:02;28.17;;;3.92;;
47021;SDS011;32779;52.264;6.154;2023-12-20T09:50:30;25.85;;;4.18;;
47021;SDS011;32779;52.264;6.154;2023-12-20T09:52:57;29.23;;;4.82;;
47021;SDS011;32779;52.264;6.154;2023-12-20T09:55:25;29.20;;;4.78;;
47021;SDS011;32779;52.264;6.154;2023-12-20T09:57:53;26.60;;;4.38;;
47021;SDS011;32779;52.264;6.154;2023-12-20T10:00:18;24.52;;;4.35;;
47021;SDS011;32779;52.264;6.154;2023-12-20T10:02:50;34.40;;;5.40;;
47021;SDS011;32779;52.264;6.154;2023-12-20T10:05:22;21.02;;;3.25;;
47021;SDS011;32779;52.264;6.154;2023-12-20T10:07:55;25.80;;;4.18;;
47021;SDS011;32779;52.264;6.154;2023-12-20T10:10:21;31.17;;;4.53;;
47021;SDS011;32779;52.264;6.154;2023-12-20T10:13:06;30.40;;;4.10;;
47021;SDS011;32779;52.264;6.154;2023-12-20T10:15:33;25.15;;;3.83;;
47021;SDS011;32779;52.264;6.154;2023-12-20T10:18:03;23.02;;;3.88;;
47021;SDS011;32779;52.264;6.154;2023-12-20T10:20:29;26.13;;;3.85;;
47021;SDS011;32779;52.264;6.154;2023-12-20T10:22:56;25.50;;;3.55;;
47021;SDS011;32779;52.264;6.154;2023-12-20T10:25:23;33.80;;;4.70;;
47021;SDS011;32779;52.264;6.154;2023-12-20T10:27:49;22.05;;;3.88;;
47021;SDS011;32779;52.264;6.154;2023-12-20T10:30:33;24.88;;;4.38;;
47021;SDS011;32779;52.264;6.154;2023-12-20T10:32:58;37.65;;;4.63;;
47021;SDS011;32779;52.264;6.154;2023-12-20T10:35:24;33.80;;;5.20;;
47021;SDS011;32779;52.264;6.154;2023-12-20T10:37:50;28.48;;;5.05;;
47021;SDS011;32779;52.264;6.154;2023-12-20T10:40:20;22.52;;;3.60;;
47021;SDS011;32779;52.264;6.154;2023-12-20T10:45:12;23.33;;;4.20;;
47021;SDS011;32779;52.264;6.154;2023-12-20T10:47:37;28.88;;;4.78;;
47021;SDS011;32779;52.264;6.154;2023-12-20T10:50:05;40.58;;;4.60;;
47021;SDS011;32779;52.264;6.154;2023-12-20T10:52:32;29.60;;;4.47;;
47021;SDS011;32779;52.264;6.154;2023-12-20T10:55:01;33.72;;;4.32;;
47021;SDS011;32779;52.264;6.154;2023-12-20T10:57:26;27.23;;;3.83;;
47021;SDS011;32779;52.264;6.154;2023-12-20T10:59:53;20.45;;;3.85;;
47021;SDS011;32779;52.264;6.154;2023-12-20T11:02:21;26.05;;;3.63;;
47021;SDS011;32779;52.264;6.154;2023-12-20T11:04:49;22.23;;;4.10;;
47021;SDS011;32779;52.264;6.154;2023-12-20T11:07:33;31.50;;;4.18;;
47021;SDS011;32779;52.264;6.154;2023-12-20T11:15:28;19.25;;;3.47;;
47021;SDS011;32779;52.264;6.154;2023-12-20T11:20:22;24.60;;;3.63;;
47021;SDS011;32779;52.264;6.154;2023-12-20T11:22:54;24.58;;;4.05;;
47021;SDS011;32779;52.264;6.154;2023-12-20T11:25:21;22.67;;;3.70;;
47021;SDS011;32779;52.264;6.154;2023-12-20T11:28:06;20.48;;;3.78;;
47021;SDS011;32779;52.264;6.154;2023-12-20T11:33:15;22.90;;;4.35;;
47021;SDS011;32779;52.264;6.154;2023-12-20T11:35:41;22.13;;;4.95;;
47021;SDS011;32779;52.264;6.154;2023-12-20T11:38:10;23.17;;;4.30;;
47021;SDS011;32779;52.264;6.154;2023-12-20T11:40:36;25.98;;;4.93;;
47021;SDS011;32779;52.264;6.154;2023-12-20T11:43:02;23.33;;;5.97;;
47021;SDS011;32779;52.264;6.154;2023-12-20T11:45:30;23.00;;;7.18;;
47021;SDS011;32779;52.264;6.154;2023-12-20T11:47:56;17.95;;;6.75;;
47021;SDS011;32779;52.264;6.154;2023-12-20T11:50:22;25.65;;;5.80;;
47021;SDS011;32779;52.264;6.154;2023-12-20T11:52:49;29.42;;;5.20;;
47021;SDS011;32779;52.264;6.154;2023-12-20T11:55:16;20.13;;;4.95;;
47021;SDS011;32779;52.264;6.154;2023-12-20T11:57:43;18.42;;;3.75;;
47021;SDS011;32779;52.264;6.154;2023-12-20T12:00:10;26.40;;;5.35;;
47021;SDS011;32779;52.264;6.154;2023-12-20T12:05:01;16.67;;;4.05;;
47021;SDS011;32779;52.264;6.154;2023-12-20T12:07:30;20.02;;;4.68;;
47021;SDS011;32779;52.264;6.154;2023-12-20T12:09:55;20.05;;;4.88;;
47021;SDS011;32779;52.264;6.154;2023-12-20T12:12:21;18.42;;;4.18;;
47021;SDS011;32779;52.264;6.154;2023-12-20T12:14:48;22.88;;;4.07;;
47021;SDS011;32779;52.264;6.154;2023-12-20T12:19:40;20.05;;;3.58;;
47021;SDS011;32779;52.264;6.154;2023-12-20T12:22:07;17.42;;;3.65;;
47021;SDS011;32779;52.264;6.154;2023-12-20T12:24:45;19.73;;;4.45;;
47021;SDS011;32779;52.264;6.154;2023-12-20T12:27:15;18.23;;;4.70;;
47021;SDS011;32779;52.264;6.154;2023-12-20T12:29:43;13.18;;;3.30;;
47021;SDS011;32779;52.264;6.154;2023-12-20T12:32:28;17.45;;;3.80;;
47021;SDS011;32779;52.264;6.154;2023-12-20T12:34:54;15.45;;;3.92;;
47021;SDS011;32779;52.264;6.154;2023-12-20T12:37:20;17.08;;;3.90;;
47021;SDS011;32779;52.264;6.154;2023-12-20T12:39:48;18.23;;;4.28;;
47021;SDS011;32779;52.264;6.154;2023-12-20T12:42:14;16.88;;;3.15;;
47021;SDS011;32779;52.264;6.154;2023-12-20T12:44:40;14.10;;;3.20;;
47021;SDS011;32779;52.264;6.154;2023-12-20T12:47:05;15.95;;;3.80;;
47021;SDS011;32779;52.264;6.154;2023-12-20T12:49:31;17.40;;;2.88;;
47021;SDS011;32779;52.264;6.154;2023-12-20T12:51:57;17.95;;;2.53;;
47021;SDS011;32779;52.264;6.154;2023-12-20T12:54:23;14.38;;;2.72;;
47021;SDS011;32779;52.264;6.154;2023-12-20T12:56:49;17.85;;;2.85;;
47021;SDS011;32779;52.264;6.154;2023-12-20T12:59:17;17.88;;;4.00;;
47021;SDS011;32779;52.264;6.154;2023-12-20T13:01:43;12.63;;;2.67;;
47021;SDS011;32779;52.264;6.154;2023-12-20T13:04:09;16.15;;;3.33;;
47021;SDS011;32779;52.264;6.154;2023-12-20T13:06:38;20.75;;;2.70;;
47021;SDS011;32779;52.264;6.154;2023-12-20T13:09:04;17.52;;;3.47;;
47021;SDS011;32779;52.264;6.154;2023-12-20T13:11:30;17.13;;;2.95;;
47021;SDS011;32779;52.264;6.154;2023-12-20T13:13:56;13.70;;;2.83;;
47021;SDS011;32779;52.264;6.154;2023-12-20T13:18:48;19.52;;;3.28;;
47021;SDS011;32779;52.264;6.154;2023-12-20T13:21:14;14.13;;;2.35;;
47021;SDS011;32779;52.264;6.154;2023-12-20T13:23:39;17.85;;;2.53;;
47021;SDS011;32779;52.264;6.154;2023-12-20T13:26:05;18.77;;;3.08;;
47021;SDS011;32779;52.264;6.154;2023-12-20T13:28:32;20.77;;;2.80;;
47021;SDS011;32779;52.264;6.154;2023-12-20T13:30:58;17.95;;;2.38;;
47021;SDS011;32779;52.264;6.154;2023-12-20T13:33:24;22.08;;;3.17;;
47021;SDS011;32779;52.264;6.154;2023-12-20T13:35:50;18.17;;;3.00;;
47021;SDS011;32779;52.264;6.154;2023-12-20T13:38:16;14.02;;;2.47;;
47021;SDS011;32779;52.264;6.154;2023-12-20T13:40:41;29.17;;;3.25;;
47021;SDS011;32779;52.264;6.154;2023-12-20T13:43:07;14.85;;;2.70;;
47021;SDS011;32779;52.264;6.154;2023-12-20T13:45:33;16.15;;;2.80;;
47021;SDS011;32779;52.264;6.154;2023-12-20T13:47:58;15.02;;;3.05;;
47021;SDS011;32779;52.264;6.154;2023-12-20T13:50:24;13.32;;;2.63;;
47021;SDS011;32779;52.264;6.154;2023-12-20T13:52:51;15.90;;;2.47;;
47021;SDS011;32779;52.264;6.154;2023-12-20T13:55:16;20.52;;;3.30;;
47021;SDS011;32779;52.264;6.154;2023-12-20T13:57:42;18.33;;;3.40;;
47021;SDS011;32779;52.264;6.154;2023-12-20T14:00:08;20.10;;;3.05;;
47021;SDS011;32779;52.264;6.154;2023-12-20T14:02:39;21.40;;;2.88;;
47021;SDS011;32779;52.264;6.154;2023-12-20T14:05:08;18.13;;;2.53;;
47021;SDS011;32779;52.264;6.154;2023-12-20T14:07:35;13.75;;;2.55;;
47021;SDS011;32779;52.264;6.154;2023-12-20T14:10:00;17.65;;;3.10;;
47021;SDS011;32779;52.264;6.154;2023-12-20T14:12:26;17.73;;;2.60;;
47021;SDS011;32779;52.264;6.154;2023-12-20T14:14:52;18.73;;;2.60;;
47021;SDS011;32779;52.264;6.154;2023-12-20T14:17:17;15.40;;;2.53;;
47021;SDS011;32779;52.264;6.154;2023-12-20T14:19:43;14.98;;;2.70;;
47021;SDS011;32779;52.264;6.154;2023-12-20T14:22:09;18.13;;;2.58;;
47021;SDS011;32779;52.264;6.154;2023-12-20T14:24:35;20.20;;;3.13;;
47021;SDS011;32779;52.264;6.154;2023-12-20T14:27:01;21.25;;;2.67;;
47021;SDS011;32779;52.264;6.154;2023-12-20T14:29:26;24.95;;;3.35;;
47021;SDS011;32779;52.264;6.154;2023-12-20T14:31:52;21.05;;;3.35;;
47021;SDS011;32779;52.264;6.154;2023-12-20T14:34:18;22.63;;;3.63;;
47021;SDS011;32779;52.264;6.154;2023-12-20T14:36:43;21.85;;;2.85;;
47021;SDS011;32779;52.264;6.154;2023-12-20T14:39:09;16.00;;;3.88;;
47021;SDS011;32779;52.264;6.154;2023-12-20T14:41:38;22.08;;;2.95;;
47021;SDS011;32779;52.264;6.154;2023-12-20T14:44:05;18.58;;;2.88;;
47021;SDS011;32779;52.264;6.154;2023-12-20T14:46:31;20.35;;;3.15;;
47021;SDS011;32779;52.264;6.154;2023-12-20T14:48:56;19.70;;;3.40;;
47021;SDS011;32779;52.264;6.154;2023-12-20T14:51:22;18.60;;;3.00;;
47021;SDS011;32779;52.264;6.154;2023-12-20T14:53:48;26.17;;;3.65;;